Time;durP1;ratioP1;P1;durP2;ratioP2;P2;SDS_P1;SDS_P2;PMS_P1;PMS_P2;Temp;Humidity;BMP_temperature;BMP_pressure;BME280_temperature;BME280_humidity;BME280_pressure;Samples;Min_cycle;Max_cycle;Signal;HPM_P1;HPM_P2
2021/12/28 00:02:08;;;;;;;67.47;38.28;;;;;;;;;;4895278;29;20433;-79
2021/12/28 00:04:34;;;;;;;65.03;39.78;;;;;;;;;;4871145;29;20837;-81
2021/12/28 00:07:00;;;;;;;67.85;39.22;;;;;;;;;;4890153;29;20420;-80
2021/12/28 00:09:26;;;;;;;71.78;41.65;;;;;;;;;;4895679;29;20473;-82
2021/12/28 00:11:52;;;;;;;74.80;41.95;;;;;;;;;;4893926;29;20432;-80
2021/12/28 00:14:22;;;;;;;84.30;44.20;;;;;;;;;;4901930;29;20825;-81
2021/12/28 00:19:33;;;;;;;77.83;43.93;;;;;;;;;;4899703;29;20521;-79
2021/12/28 00:21:59;;;;;;;73.97;42.58;;;;;;;;;;4888972;29;20495;-79
2021/12/28 00:24:25;;;;;;;79.13;44.67;;;;;;;;;;4864463;29;20435;-81
2021/12/28 00:26:53;;;;;;;84.45;44.97;;;;;;;;;;4934548;29;20422;-80
2021/12/28 00:29:19;;;;;;;79.88;43.92;;;;;;;;;;4906706;29;21018;-80
2021/12/28 00:31:45;;;;;;;79.47;43.67;;;;;;;;;;4867143;29;20494;-78
2021/12/28 00:34:11;;;;;;;96.72;47.13;;;;;;;;;;4903017;29;20800;-80
2021/12/28 00:36:37;;;;;;;82.60;44.55;;;;;;;;;;4903248;29;20524;-78
2021/12/28 00:39:05;;;;;;;97.13;47.03;;;;;;;;;;4885671;29;20983;-79
2021/12/28 00:41:31;;;;;;;91.78;48.00;;;;;;;;;;4921129;29;20420;-79
2021/12/28 00:43:57;;;;;;;99.30;47.33;;;;;;;;;;4913018;29;20801;-79
2021/12/28 00:46:23;;;;;;;106.18;50.90;;;;;;;;;;4894598;29;20435;-79
2021/12/28 00:48:49;;;;;;;107.25;50.45;;;;;;;;;;4896800;29;20435;-78
2021/12/28 00:51:15;;;;;;;115.25;52.47;;;;;;;;;;4898843;29;20781;-79
2021/12/28 00:53:41;;;;;;;132.18;55.53;;;;;;;;;;4919036;29;20433;-79
2021/12/28 00:56:09;;;;;;;129.70;54.90;;;;;;;;;;4903702;29;20425;-78
2021/12/28 00:58:37;;;;;;;138.60;57.47;;;;;;;;;;4911548;29;20954;-78
2021/12/28 01:01:03;;;;;;;151.07;57.97;;;;;;;;;;4920177;29;20763;-78
2021/12/28 01:03:30;;;;;;;150.05;58.05;;;;;;;;;;4885280;29;20787;-79
2021/12/28 01:05:56;;;;;;;164.83;59.83;;;;;;;;;;4915036;29;20529;-78
2021/12/28 01:08:22;;;;;;;170.30;62.38;;;;;;;;;;4873190;29;20434;-78
2021/12/28 01:10:52;;;;;;;183.90;63.53;;;;;;;;;;4916711;29;20792;-79
2021/12/28 01:13:19;;;;;;;194.53;67.80;;;;;;;;;;4907682;29;20419;-78
2021/12/28 01:15:46;;;;;;;200.82;67.05;;;;;;;;;;4874051;29;20511;-78
2021/12/28 01:18:12;;;;;;;203.63;69.43;;;;;;;;;;4882523;29;20470;-78
2021/12/28 01:20:39;;;;;;;222.45;71.63;;;;;;;;;;4893173;29;20423;-79
2021/12/28 01:23:07;;;;;;;233.15;73.55;;;;;;;;;;4905720;29;20845;-79
2021/12/28 01:25:33;;;;;;;281.55;79.90;;;;;;;;;;4869761;29;20981;-78
2021/12/28 01:27:59;;;;;;;282.40;78.85;;;;;;;;;;4888400;29;20431;-77
2021/12/28 01:30:26;;;;;;;278.40;78.93;;;;;;;;;;4882337;29;20539;-78
2021/12/28 01:32:52;;;;;;;356.70;89.00;;;;;;;;;;4888608;29;20426;-78
2021/12/28 01:35:19;;;;;;;334.08;90.10;;;;;;;;;;4909627;29;20433;-75
2021/12/28 01:37:46;;;;;;;321.53;82.27;;;;;;;;;;4889068;29;20445;-75
2021/12/28 01:40:15;;;;;;;323.50;85.60;;;;;;;;;;4897082;29;20419;-75
2021/12/28 01:42:54;;;;;;;365.55;89.53;;;;;;;;;;4904254;29;20490;-75
2021/12/28 01:45:30;;;;;;;386.45;90.72;;;;;;;;;;4903143;29;20506;-78
2021/12/28 01:47:56;;;;;;;405.95;93.97;;;;;;;;;;4880835;29;20438;-78
2021/12/28 01:50:22;;;;;;;432.35;95.65;;;;;;;;;;4903390;29;20438;-80
2021/12/28 01:52:48;;;;;;;448.60;99.57;;;;;;;;;;4915563;29;20583;-79
2021/12/28 01:55:15;;;;;;;458.52;101.95;;;;;;;;;;4894431;29;20447;-78
2021/12/28 01:57:41;;;;;;;447.55;100.43;;;;;;;;;;4872559;29;20502;-78
2021/12/28 02:00:08;;;;;;;502.75;106.90;;;;;;;;;;4880682;29;20430;-78
2021/12/28 02:02:34;;;;;;;442.77;99.65;;;;;;;;;;4892126;29;20921;-78
2021/12/28 02:05:00;;;;;;;488.73;105.05;;;;;;;;;;4891275;29;20437;-78
2021/12/28 02:07:26;;;;;;;490.57;102.60;;;;;;;;;;4903758;29;20536;-80
2021/12/28 02:09:52;;;;;;;493.40;103.90;;;;;;;;;;4909862;29;20441;-78
2021/12/28 02:12:18;;;;;;;499.35;107.53;;;;;;;;;;4882497;29;20441;-80
2021/12/28 02:14:45;;;;;;;480.37;102.90;;;;;;;;;;4904616;29;20446;-80
2021/12/28 02:17:11;;;;;;;442.88;98.63;;;;;;;;;;4904643;29;20494;-80
2021/12/28 02:19:37;;;;;;;874.95;144.50;;;;;;;;;;4879138;29;20482;-78
2021/12/28 02:22:04;;;;;;;592.90;117.50;;;;;;;;;;4894203;29;20426;-78
2021/12/28 02:24:30;;;;;;;764.65;133.45;;;;;;;;;;4914998;29;20435;-78
2021/12/28 02:26:56;;;;;;;636.65;124.78;;;;;;;;;;4915772;29;20447;-78
2021/12/28 02:29:22;;;;;;;653.53;124.18;;;;;;;;;;4874933;29;20518;-78
2021/12/28 02:31:50;;;;;;;606.20;118.30;;;;;;;;;;4897794;29;20441;-78
2021/12/28 02:34:17;;;;;;;563.75;111.40;;;;;;;;;;4902424;29;20439;-80
2021/12/28 02:36:43;;;;;;;581.15;115.30;;;;;;;;;;4890061;29;20438;-80
2021/12/28 02:39:11;;;;;;;540.63;111.05;;;;;;;;;;4874534;29;20483;-80
2021/12/28 02:41:37;;;;;;;491.27;104.30;;;;;;;;;;4909607;29;20423;-80
2021/12/28 02:44:04;;;;;;;547.67;107.17;;;;;;;;;;4883912;29;20555;-80
2021/12/28 02:46:30;;;;;;;578.78;114.10;;;;;;;;;;4902784;29;20450;-80
2021/12/28 02:48:56;;;;;;;556.72;112.32;;;;;;;;;;4912463;29;20792;-80
2021/12/28 02:51:22;;;;;;;503.05;105.43;;;;;;;;;;4910434;29;20507;-80
2021/12/28 02:53:49;;;;;;;533.55;104.90;;;;;;;;;;4907441;29;20470;-77
2021/12/28 02:56:16;;;;;;;663.58;122.90;;;;;;;;;;4886033;29;20926;-78
2021/12/28 02:58:44;;;;;;;877.13;138.25;;;;;;;;;;4894435;29;20936;-78
2021/12/28 03:01:13;;;;;;;565.50;110.87;;;;;;;;;;4909246;29;20436;-78
2021/12/28 03:03:40;;;;;;;566.53;112.07;;;;;;;;;;4910112;29;20543;-78
2021/12/28 03:06:07;;;;;;;570.58;111.18;;;;;;;;;;4892715;29;20431;-78
2021/12/28 03:08:35;;;;;;;815.80;135.02;;;;;;;;;;4913188;29;20431;-78
2021/12/28 03:11:02;;;;;;;652.80;118.80;;;;;;;;;;4906307;29;20518;-78
2021/12/28 03:13:30;;;;;;;601.88;113.47;;;;;;;;;;4900785;29;20439;-78
2021/12/28 03:15:57;;;;;;;546.20;108.05;;;;;;;;;;4905637;29;20970;-79
2021/12/28 03:18:23;;;;;;;554.72;111.13;;;;;;;;;;4913824;29;20435;-79
2021/12/28 03:20:50;;;;;;;1359.75;176.50;;;;;;;;;;4894376;29;20990;-79
2021/12/28 03:23:17;;;;;;;600.60;113.68;;;;;;;;;;4904962;29;20427;-78
2021/12/28 03:25:44;;;;;;;570.17;111.57;;;;;;;;;;4893877;29;20522;-79
2021/12/28 03:28:15;;;;;;;547.22;107.03;;;;;;;;;;4894305;29;20781;-79
2021/12/28 03:30:41;;;;;;;660.95;115.00;;;;;;;;;;4923271;29;20788;-79
2021/12/28 03:33:07;;;;;;;686.40;119.13;;;;;;;;;;4884718;29;20427;-79
2021/12/28 03:35:34;;;;;;;486.38;97.13;;;;;;;;;;4906246;29;20428;-79
2021/12/28 03:38:00;;;;;;;456.92;96.20;;;;;;;;;;4891285;29;20524;-79
2021/12/28 03:40:26;;;;;;;481.95;99.57;;;;;;;;;;4896200;29;20496;-79
2021/12/28 03:42:52;;;;;;;620.42;111.28;;;;;;;;;;4896524;29;20463;-79
2021/12/28 03:45:18;;;;;;;492.75;96.90;;;;;;;;;;4887519;29;20551;-78
2021/12/28 03:47:44;;;;;;;418.45;90.65;;;;;;;;;;4878064;29;20427;-79
2021/12/28 03:50:11;;;;;;;429.48;91.85;;;;;;;;;;4906938;29;20441;-79
2021/12/28 03:52:37;;;;;;;431.60;91.72;;;;;;;;;;4882599;29;20432;-79
2021/12/28 03:55:04;;;;;;;435.38;93.90;;;;;;;;;;4899122;29;20432;-79
2021/12/28 03:57:30;;;;;;;736.85;119.35;;;;;;;;;;4903902;29;20441;-80
2021/12/28 03:59:56;;;;;;;554.40;103.78;;;;;;;;;;4895707;29;20506;-79
2021/12/28 04:02:23;;;;;;;453.23;93.45;;;;;;;;;;4889234;29;20431;-79
2021/12/28 04:04:49;;;;;;;404.27;87.38;;;;;;;;;;4884284;29;20431;-79
2021/12/28 04:07:19;;;;;;;401.47;89.03;;;;;;;;;;4908441;29;20434;-80
2021/12/28 04:12:18;;;;;;;354.92;81.18;;;7.00;99.90;;;;;;4912449;29;20475;-80
2021/12/28 04:14:44;;;;;;;597.33;106.97;;;;;;;;;;4885347;29;20438;-79
2021/12/28 04:17:10;;;;;;;385.70;83.50;;;;;;;;;;4898249;29;20435;-79
2021/12/28 04:19:36;;;;;;;331.60;79.72;;;;;;;;;;4905029;29;20426;-79
2021/12/28 04:22:03;;;;;;;331.42;79.72;;;;;;;;;;4899450;29;20428;-79
2021/12/28 04:24:29;;;;;;;307.40;74.13;;;;;;;;;;4888447;29;20803;-80
2021/12/28 04:26:55;;;;;;;320.65;78.63;;;;;;;;;;4878126;29;20430;-79
2021/12/28 04:29:21;;;;;;;393.58;80.70;;;;;;;;;;4896893;29;20486;-79
2021/12/28 04:31:47;;;;;;;591.45;108.13;;;;;;;;;;4876540;29;20439;-80
2021/12/28 04:34:13;;;;;;;303.55;72.82;;;;;;;;;;4879712;29;20435;-79
2021/12/28 04:36:39;;;;;;;262.23;69.88;;;;;;;;;;4916715;29;20439;-79
2021/12/28 04:39:06;;;;;;;301.80;73.20;;;;;;;;;;4895955;29;20820;-80
2021/12/28 04:41:34;;;;;;;273.25;72.88;;;;;;;;;;4909252;29;20502;-80
2021/12/28 04:44:01;;;;;;;232.95;64.32;;;;;;;;;;4893063;29;20530;-79
2021/12/28 04:46:30;;;;;;;217.50;67.38;;;;;;;;;;4902818;29;20410;-80
2021/12/28 04:48:57;;;;;;;225.70;67.05;;;;;;;;;;4905239;29;20431;-80
2021/12/28 04:51:23;;;;;;;222.43;64.18;;;;;;;;;;4897152;29;21022;-80
2021/12/28 04:53:50;;;;;;;230.05;64.80;;;;;;;;;;4911258;29;20446;-80
2021/12/28 04:56:16;;;;;;;192.02;61.50;;;;;;;;;;4901680;29;20445;-80
2021/12/28 04:58:42;;;;;;;226.82;65.18;;;;;;;;;;4884381;29;20475;-79
2021/12/28 05:01:08;;;;;;;208.38;62.75;;;;;;;;;;4878216;29;20434;-79
2021/12/28 05:03:34;;;;;;;345.73;82.85;;;;;;;;;;4903560;29;20437;-79
2021/12/28 05:06:01;;;;;;;202.65;64.63;;;;;;;;;;4900850;29;20970;-79
2021/12/28 05:08:27;;;;;;;208.05;62.72;;;;;;;;;;4878949;29;20777;-79
2021/12/28 05:10:53;;;;;;;178.95;62.75;;;;;;;;;;4897773;29;20435;-79
2021/12/28 05:13:19;;;;;;;180.18;61.53;;;;;;;;;;4887093;29;20825;-80
2021/12/28 05:15:46;;;;;;;216.70;66.88;;;;;;;;;;4905346;29;20438;-80
2021/12/28 05:18:13;;;;;;;220.55;66.97;;;;;;;;;;4903811;29;20792;-79
2021/12/28 05:20:40;;;;;;;214.88;66.80;;;;;;;;;;4909384;29;20422;-79
2021/12/28 05:23:06;;;;;;;196.70;64.75;;;;;;;;;;4891487;29;20749;-80
2021/12/28 05:25:33;;;;;;;168.05;58.83;;;;;;;;;;4899536;29;20430;-79
2021/12/28 05:27:59;;;;;;;178.43;61.10;;;;;;;;;;4915642;29;20437;-79
2021/12/28 05:30:25;;;;;;;139.23;57.33;;;;;;;;;;4911226;29;20431;-79
2021/12/28 05:32:52;;;;;;;166.75;58.88;;;;;;;;;;4906311;29;20436;-79
2021/12/28 05:35:18;;;;;;;429.80;83.83;;;;;;;;;;4898820;29;20565;-79
2021/12/28 05:37:44;;;;;;;148.90;54.92;;;;;;;;;;4894127;29;20440;-79
2021/12/28 05:40:11;;;;;;;134.25;53.05;;;;;;;;;;4925380;29;20518;-79
2021/12/28 05:42:37;;;;;;;124.97;51.13;;;;;;;;;;4912019;29;20423;-79
2021/12/28 05:45:04;;;;;;;124.95;51.97;;;;;;;;;;4893428;29;20772;-79
2021/12/28 05:47:30;;;;;;;131.57;51.80;;;;;;;;;;4909044;29;20442;-79
2021/12/28 05:49:56;;;;;;;143.82;53.35;;;;;;;;;;4911599;29;20424;-79
2021/12/28 05:52:23;;;;;;;123.22;49.33;;;;;;;;;;4866476;29;20445;-79
2021/12/28 05:54:49;;;;;;;126.30;49.97;;;;;;;;;;4902841;29;20504;-79
2021/12/28 05:57:15;;;;;;;113.32;47.10;;;;;;;;;;4911684;29;20516;-79
2021/12/28 05:59:41;;;;;;;113.05;47.25;;;;;;;;;;4914932;29;20517;-79
2021/12/28 06:02:08;;;;;;;136.82;48.33;;;;;;;;;;4901616;29;20431;-79
2021/12/28 06:04:34;;;;;;;193.15;57.75;;;;;;;;;;4864434;29;21091;-79
2021/12/28 06:07:00;;;;;;;119.47;46.08;;;;;;;;;;4895438;29;20454;-79
2021/12/28 06:09:26;;;;;;;111.07;42.95;;;;;;;;;;4892981;29;20429;-79
2021/12/28 06:11:52;;;;;;;196.60;51.77;;;;;;;;;;4915145;29;20442;-79
2021/12/28 06:14:18;;;;;;;110.70;41.47;;;;;;;;;;4900279;29;20433;-79
2021/12/28 06:16:45;;;;;;;236.73;54.50;;;;;;;;;;4898905;29;20448;-80
2021/12/28 06:19:11;;;;;;;483.63;72.88;;;;;;;;;;4900406;29;20431;-79
2021/12/28 06:21:38;;;;;;;378.20;62.97;;;;;;;;;;4898169;29;20479;-79
2021/12/28 06:24:05;;;;;;;340.13;62.90;;;;;;;;;;4898111;29;20435;-79
2021/12/28 06:26:31;;;;;;;676.78;87.97;;;;;;;;;;4907594;29;20427;-80
2021/12/28 06:28:58;;;;;;;301.10;58.45;;;;;;;;;;4892658;29;20436;-79
2021/12/28 06:31:28;;;;;;;116.00;41.87;;;;;;;;;;4883746;29;20770;-80
2021/12/28 06:33:54;;;;;;;815.97;104.32;;;;;;;;;;4897327;29;20434;-79
2021/12/28 06:36:20;;;;;;;150.18;43.85;;;;;;;;;;4886128;29;20779;-79
2021/12/28 06:38:46;;;;;;;638.00;83.13;;;;;;;;;;4889781;29;20526;-79
2021/12/28 06:41:12;;;;;;;252.43;47.63;;;;;;;;;;4889288;29;20437;-79
2021/12/28 06:43:38;;;;;;;709.28;86.90;;;;;;;;;;4913266;29;20435;-79
2021/12/28 06:46:04;;;;;;;134.00;36.55;;;;;;;;;;4903696;29;20429;-79
2021/12/28 06:48:31;;;;;;;75.15;33.53;;;;;;;;;;4900840;29;20458;-78
2021/12/28 06:50:57;;;;;;;120.40;35.30;;;;;;;;;;4874116;29;20439;-79
2021/12/28 06:53:23;;;;;;;187.05;42.60;;;;;;;;;;4869828;29;20437;-79
2021/12/28 06:55:49;;;;;;;104.47;34.17;;;;;;;;;;4904816;29;20523;-79
2021/12/28 06:58:15;;;;;;;214.75;40.22;;;;;;;;;;4883417;29;20450;-79
2021/12/28 07:00:41;;;;;;;76.00;33.03;;;;;;;;;;4911252;29;20427;-79
2021/12/28 07:03:07;;;;;;;59.55;29.70;;;;;;;;;;4904762;29;20450;-79
2021/12/28 07:05:34;;;;;;;121.47;35.65;;;;;;;;;;4911517;29;20437;-80
2021/12/28 07:08:01;;;;;;;86.97;32.92;;;;;;;;;;4871747;29;20446;-79
2021/12/28 07:10:27;;;;;;;77.63;31.92;;;;;;;;;;4915394;29;20820;-80
2021/12/28 07:12:53;;;;;;;123.70;34.27;;;;;;;;;;4901009;29;20941;-80
2021/12/28 07:15:20;;;;;;;144.45;36.15;;;;;;;;;;4911864;29;20462;-80
2021/12/28 07:17:46;;;;;;;78.75;27.83;;;;;;;;;;4895806;29;20441;-80
2021/12/28 07:20:12;;;;;;;60.47;27.50;;;;;;;;;;4905573;29;20486;-80
2021/12/28 07:22:39;;;;;;;64.63;28.15;;;;;;;;;;4896796;29;20497;-81
2021/12/28 07:25:05;;;;;;;62.10;26.85;;;;;;;;;;4891749;29;20441;-81
2021/12/28 07:27:31;;;;;;;47.27;24.27;;;;;;;;;;4900783;29;20472;-80
2021/12/28 07:29:57;;;;;;;159.65;33.25;;;;;;;;;;4902950;29;20454;-81
2021/12/28 07:32:23;;;;;;;48.63;24.52;;;;;;;;;;4897209;29;20427;-81
2021/12/28 07:34:50;;;;;;;51.90;24.60;;;;;;;;;;4914070;29;20442;-80
2021/12/28 07:37:16;;;;;;;48.97;25.38;;;;;;;;;;4896280;29;20440;-80
2021/12/28 07:39:42;;;;;;;121.10;28.50;;;;;;;;;;4929805;29;20546;-82
2021/12/28 07:42:08;;;;;;;51.97;24.00;;;;;;;;;;4901987;29;20437;-80
2021/12/28 07:44:35;;;;;;;44.53;21.90;;;;;;;;;;4910646;29;20433;-79
2021/12/28 07:47:02;;;;;;;46.47;22.55;;;;;;;;;;4884891;29;20435;-80
2021/12/28 07:49:28;;;;;;;42.65;22.52;;;;;;;;;;4904165;29;20450;-80
2021/12/28 07:51:54;;;;;;;42.72;22.52;;;;;;;;;;4905749;29;20791;-81
2021/12/28 07:54:20;;;;;;;45.65;22.20;;;;;;;;;;4912525;29;20431;-80
2021/12/28 07:56:46;;;;;;;41.03;20.63;;;;;;;;;;4921815;29;22453;-79
2021/12/28 08:07:25;;;;;;;40.35;20.60;;;;;;;;;;5326294;23;21566;-77
2021/12/28 08:12:27;;;;;;;39.70;21.85;;;;;;;;;;5689567;23;20451;-74
2021/12/28 08:14:53;;;;;;;42.75;19.48;;;;;;;;;;4920985;29;20546;-78
2021/12/28 08:17:19;;;;;;;44.60;20.80;;;;;;;;;;4922815;29;20442;-78
2021/12/28 08:19:48;;;;;;;87.43;25.60;;;;;;;;;;4922497;29;20454;-78
2021/12/28 08:22:14;;;;;;;36.83;20.23;;;;;;;;;;4939690;29;20449;-78
2021/12/28 08:24:40;;;;;;;39.30;19.13;;;;;;;;;;4921791;29;20422;-78
2021/12/28 08:27:06;;;;;;;39.87;19.30;;;;;;;;;;4938688;29;20430;-79
2021/12/28 08:29:32;;;;;;;167.05;30.67;;;;;;;;;;4921509;29;20458;-78
2021/12/28 08:31:58;;;;;;;45.10;21.27;;;;;;;;;;4905995;29;20788;-78
2021/12/28 08:34:24;;;;;;;43.65;21.48;;;;;;;;;;4890165;29;20424;-78
2021/12/28 08:36:50;;;;;;;43.72;20.42;;;;;;;;;;4931853;29;20502;-78
2021/12/28 08:39:17;;;;;;;219.25;35.63;;;;;;;;;;4924136;29;20445;-79
2021/12/28 08:41:43;;;;;;;288.38;44.38;;;;;;;;;;4906861;29;20478;-79
2021/12/28 08:44:09;;;;;;;45.93;21.93;;;;;;;;;;4933955;28;20808;-79
2021/12/28 08:46:35;;;;;;;49.65;22.38;;;;;;;;;;4931225;29;20426;-79
2021/12/28 08:49:01;;;;;;;46.70;21.63;;;;;;;;;;4943385;29;20796;-79
2021/12/28 08:51:28;;;;;;;266.88;39.45;;;;;;;;;;4918891;29;20511;-78
2021/12/28 08:53:54;;;;;;;43.60;19.73;;;;;;;;;;4911102;29;20448;-79
2021/12/28 08:56:20;;;;;;;43.97;19.25;;;;;;;;;;4887712;29;20423;-78
2021/12/28 08:58:46;;;;;;;41.03;19.42;;;;;;;;;;4908657;29;20504;-78
2021/12/28 09:01:12;;;;;;;77.78;22.45;;;;;;;;;;4929615;29;20420;-77
2021/12/28 09:03:38;;;;;;;45.20;18.60;;;;;;;;;;4918671;29;20455;-76
2021/12/28 09:06:05;;;;;;;46.08;18.85;;;;;;;;;;4918518;29;20415;-77
2021/12/28 09:08:32;;;;;;;39.35;18.70;;;;;;;;;;4918187;29;20427;-76
2021/12/28 09:10:58;;;;;;;40.90;18.48;;;;;;;;;;4918765;29;20962;-77
2021/12/28 09:13:24;;;;;;;81.80;21.10;;;;;;;;;;4910900;29;20452;-78
2021/12/28 09:15:50;;;;;;;44.17;18.30;;;;;;;;;;4896499;29;20508;-78
2021/12/28 09:18:17;;;;;;;36.22;17.48;;;;;;;;;;4909774;29;20433;-78
2021/12/28 09:20:44;;;;;;;40.53;18.75;;;;;;;;;;4891979;29;20455;-78
2021/12/28 09:23:12;;;;;;;101.00;23.63;;;;;;;;;;4883576;29;20416;-78
2021/12/28 09:25:39;;;;;;;41.03;17.35;;;;;;;;;;4890202;29;20423;-78
2021/12/28 09:28:06;;;;;;;37.60;17.35;;;;;;;;;;4890585;29;20417;-80
2021/12/28 09:30:32;;;;;;;38.75;17.40;;;;;;;;;;4896430;29;20419;-81
2021/12/28 09:32:59;;;;;;;60.10;19.35;;;;;;;;;;4899407;29;20818;-77
2021/12/28 09:35:25;;;;;;;81.88;21.20;;;;;;;;;;4890479;29;20796;-78
2021/12/28 09:37:51;;;;;;;49.72;17.58;;;;;;;;;;4871419;29;20429;-75
2021/12/28 09:40:17;;;;;;;67.43;19.25;;;;;;;;;;4879307;29;20554;-75
2021/12/28 09:42:43;;;;;;;40.22;16.95;;;;;;;;;;4879446;29;20528;-75
2021/12/28 09:45:10;;;;;;;38.25;16.90;;;;;;;;;;4875199;29;20527;-75
2021/12/28 09:47:37;;;;;;;38.13;17.17;;;;;;;;;;4871051;29;20443;-76
2021/12/28 09:50:04;;;;;;;36.90;16.53;;;;;;;;;;4885888;29;20431;-75
2021/12/28 09:52:30;;;;;;;44.97;18.38;;;;;;;;;;4883269;29;20435;-75
2021/12/28 09:54:56;;;;;;;35.10;15.80;;;;;;;;;;4892548;29;20638;-76
2021/12/28 09:57:22;;;;;;;68.70;18.55;;;;;;;;;;4891874;29;20473;-78
2021/12/28 09:59:48;;;;;;;33.67;16.00;;;;;;;;;;4904390;29;20468;-79
2021/12/28 10:02:15;;;;;;;65.25;19.55;;;;;;;;;;4892942;29;20439;-76
2021/12/28 10:04:54;;;;;;;41.30;19.38;;;;;;;;;;4872510;29;20431;-76
2021/12/28 10:07:22;;;;;;;50.63;20.20;;;;;;;;;;4871649;29;20550;-75
2021/12/28 10:09:48;;;;;;;44.40;19.70;;;;;;;;;;4881346;29;20433;-80
2021/12/28 10:12:25;;;;;;;45.20;21.17;;;;;;;;;;4878291;29;20543;-81
2021/12/28 10:14:54;;;;;;;90.75;25.13;;;;;;;;;;4872718;29;20441;-81
2021/12/28 10:17:24;;;;;;;145.93;29.50;;;;;;;;;;4872091;29;20439;-81
2021/12/28 10:19:50;;;;;;;44.30;20.45;;;;;;;;;;4876127;29;20561;-81
2021/12/28 10:22:35;;;;;;;47.42;20.10;;;;;;;;;;4872291;29;20456;-81
2021/12/28 10:25:09;;;;;;;42.38;20.83;;;;;;;;;;4885815;29;20536;-79
2021/12/28 10:27:36;;;;;;;81.00;23.42;;;;;;;;;;4900395;29;20448;-80
2021/12/28 10:30:12;;;;;;;48.05;21.58;;;7.40;99.90;;;;;;4878592;29;20466;-78
2021/12/28 10:32:40;;;;;;;47.28;21.60;;;;;;;;;;4885948;29;20437;-80
2021/12/28 10:35:08;;;;;;;54.17;23.53;;;;;;;;;;4885355;29;20448;-81
2021/12/28 10:37:37;;;;;;;95.25;27.00;;;;;;;;;;4879290;29;20442;-80
2021/12/28 10:40:06;;;;;;;45.97;22.80;;;;;;;;;;4886415;29;20459;-80
2021/12/28 10:42:40;;;;;;;51.45;25.02;;;;;;;;;;4895960;29;20516;-79
2021/12/28 10:45:08;;;;;;;43.95;23.45;;;;;;;;;;4890661;29;20456;-82
2021/12/28 10:47:34;;;;;;;71.32;23.52;;;;;;;;;;4873261;29;20483;-79
2021/12/28 10:50:01;;;;;;;59.72;23.20;;;;;;;;;;4873720;29;20832;-80
2021/12/28 10:52:33;;;;;;;41.72;21.73;;;;;;;;;;4878388;29;21004;-80
2021/12/28 10:55:17;;;;;;;39.13;21.40;;;;;;;;;;4882708;29;21026;-81
2021/12/28 10:57:43;;;;;;;52.75;22.13;;;;;;;;;;4879600;29;20772;-80
2021/12/28 11:00:25;;;;;;;96.40;26.37;;;;;;;;;;4880650;29;20480;-78
2021/12/28 11:02:51;;;;;;;38.45;20.33;;;;;;;;;;4876659;29;20437;-77
2021/12/28 11:05:31;;;;;;;44.50;22.80;;;;;;;;;;4895953;29;20765;-78
2021/12/28 11:07:58;;;;;;;39.97;22.65;;;;;;;;;;4884392;29;20544;-78
2021/12/28 11:10:28;;;;;;;45.60;23.58;;;;;;;;;;4873368;29;20465;-78
2021/12/28 11:12:55;;;;;;;40.45;23.02;;;;;;;;;;4879099;29;20451;-77
2021/12/28 11:15:22;;;;;;;148.70;30.90;;;;;;;;;;4886396;29;20492;-77
2021/12/28 11:17:49;;;;;;;71.95;25.75;;;;;;;;;;4890676;29;20437;-79
2021/12/28 11:20:15;;;;;;;37.03;22.23;;;;;;;;;;4888719;29;20795;-80
2021/12/28 11:23:01;;;;;;;38.45;21.63;;;;;;;;;;4890006;29;20435;-79
2021/12/28 11:25:28;;;;;;;38.80;22.70;;;;;;;;;;4876181;29;20514;-79
2021/12/28 11:28:12;;;;;;;50.05;25.60;;;;;;;;;;4889666;29;20429;-80
2021/12/28 11:30:39;;;;;;;230.23;44.58;;;;;;;;;;4888316;29;20522;-80
2021/12/28 11:33:08;;;;;;;41.17;23.38;;;;;;;;;;4880209;29;20813;-80
2021/12/28 11:35:35;;;;;;;118.15;27.80;;;;;;;;;;4898139;29;20446;-80
2021/12/28 11:38:01;;;;;;;42.97;23.40;;;;;;;;;;4875236;29;20453;-80
2021/12/28 11:40:28;;;;;;;46.45;24.95;;;;;;;;;;4893712;29;20421;-80
2021/12/28 11:42:54;;;;;;;52.63;23.83;;;;;;;;;;4886025;29;20473;-81
2021/12/28 11:45:21;;;;;;;121.32;26.52;;;;;;;;;;4907842;29;20433;-80
2021/12/28 11:47:47;;;;;;;32.85;20.55;;;;;;;;;;4882655;29;20520;-80
2021/12/28 11:50:13;;;;;;;33.03;21.17;;;;;;;;;;4882533;29;20520;-80
2021/12/28 11:52:39;;;;;;;60.67;23.17;;;;;;;;;;4887109;29;20443;-80
2021/12/28 11:55:09;;;;;;;255.75;36.38;;;;;;;;;;4854975;29;20935;-80
2021/12/28 11:57:35;;;;;;;38.53;21.95;;;;;;;;;;4881448;29;20489;-80
2021/12/28 12:00:05;;;;;;;34.85;20.73;;;;;;;;;;4882431;29;20501;-79
2021/12/28 12:02:45;;;;;;;46.90;24.73;;;;;;;;;;4899498;29;20528;-80
2021/12/28 12:05:23;;;;;;;106.00;27.63;;;;;;;;;;4876520;29;20439;-79
2021/12/28 12:08:08;;;;;;;116.15;26.85;;;;;;;;;;4890788;29;20424;-79
2021/12/28 12:10:35;;;;;;;34.55;19.92;;;;;;;;;;4897217;29;20908;-79
2021/12/28 12:13:04;;;;;;;43.95;20.50;;;;;;;;;;4867625;29;20473;-80
2021/12/28 12:15:36;;;;;;;185.27;31.27;;;;;;;;;;4878320;29;20516;-78
2021/12/28 12:18:02;;;;;;;89.68;22.75;;;;;;;;;;4894679;29;20445;-79
2021/12/28 12:20:30;;;;;;;29.60;18.92;;;;;;;;;;4875303;29;20445;-79
2021/12/28 12:23:09;;;;;;;33.50;19.90;;;;;;;;;;4891132;29;20414;-79
2021/12/28 12:25:49;;;;;;;144.25;28.05;;;;;;;;;;4887583;29;20433;-80
2021/12/28 12:28:15;;;;;;;31.20;19.30;;;;;;;;;;4918366;29;20774;-80
2021/12/28 12:30:54;;;;;;;28.08;18.88;;;;;;;;;;4891583;29;20446;-80
2021/12/28 12:33:21;;;;;;;31.95;20.00;;;;;;;;;;4880021;29;20417;-79
2021/12/28 12:35:50;;;;;;;39.83;21.90;;;;;;;;;;4877843;29;20498;-80
2021/12/28 12:38:16;;;;;;;191.38;32.00;;;;;;;;;;4885932;29;20443;-79
2021/12/28 12:41:01;;;;;;;36.05;21.70;;;8.00;99.90;;;;;;4896717;29;20941;-79
2021/12/28 12:43:27;;;;;;;38.65;22.85;;;;;;;;;;4890929;29;20901;-79
2021/12/28 12:45:54;;;;;;;105.47;26.73;;;;;;;;;;4899031;29;20445;-80
2021/12/28 12:48:33;;;;;;;72.88;26.00;;;;;;;;;;4898654;29;20423;-79
2021/12/28 12:51:17;;;;;;;129.45;28.48;;;;;;;;;;4906137;29;20512;-79
2021/12/28 12:53:45;;;;;;;33.63;22.52;;;;;;;;;;4889689;29;20948;-79
2021/12/28 12:56:16;;;;;;;30.83;20.77;;;;;;;;;;4889466;29;20516;-79
2021/12/28 12:58:46;;;;;;;133.23;27.23;;;;;;;;;;4892607;29;20462;-79
2021/12/28 13:01:22;;;;;;;204.00;32.67;;;;;;;;;;4879620;29;20438;-79
2021/12/28 13:03:48;;;;;;;81.68;23.67;;;;;;;;;;4894643;29;20964;-79
2021/12/28 13:06:14;;;;;;;83.00;24.08;;;;;;;;;;4887037;29;20437;-79
2021/12/28 13:08:56;;;;;;;39.90;21.50;;;;;;;;;;4910615;29;20485;-79
2021/12/28 13:11:29;;;;;;;93.65;25.20;;;;;;;;;;4890974;29;20795;-79
2021/12/28 13:13:55;;;;;;;342.38;41.75;;;;;;;;;;4893758;29;20815;-79
2021/12/28 13:16:22;;;;;;;78.57;24.02;;;;;;;;;;4897359;29;20417;-79
2021/12/28 13:18:48;;;;;;;34.83;22.38;;;;;;;;;;4895740;29;20438;-79
2021/12/28 13:21:21;;;;;;;299.33;38.37;;;;;;;;;;4882052;29;20933;-78
2021/12/28 13:24:07;;;;;;;59.37;24.60;;;;;;;;;;4903318;29;20502;-79
2021/12/28 13:26:43;;;;;;;35.65;21.88;;;;;;;;;;4910266;29;20419;-79
2021/12/28 13:29:09;;;;;;;36.25;21.92;;;;;;;;;;4897890;29;20499;-79
2021/12/28 13:31:35;;;;;;;175.25;30.65;;;;;;;;;;4904423;29;20418;-79
2021/12/28 13:34:01;;;;;;;35.53;23.05;;;;;;;;;;4899876;29;20424;-79
2021/12/28 13:36:28;;;;;;;34.45;23.88;;;;;;;;;;4889921;29;20748;-77
2021/12/28 13:39:08;;;;;;;31.73;21.70;;;;;;;;;;4891859;29;20509;-77
2021/12/28 13:41:34;;;;;;;32.08;22.00;;;;;;;;;;4888955;29;20425;-77
2021/12/28 13:44:05;;;;;;;206.82;33.22;;;;;;;;;;4907122;29;20413;-80
2021/12/28 13:46:31;;;;;;;32.72;21.95;;;;;;;;;;4899183;29;20432;-80
2021/12/28 13:49:02;;;;;;;34.40;21.73;;;;;;;;;;4889959;29;20932;-79
2021/12/28 13:51:30;;;;;;;33.28;21.20;;;;;;;;;;4910189;29;20911;-80
2021/12/28 13:54:00;;;;;;;32.85;21.45;;;;;;;;;;4915625;29;20754;-80
2021/12/28 13:56:35;;;;;;;36.78;21.52;;;;;;;;;;4929259;29;20425;-80
2021/12/28 13:59:02;;;;;;;54.47;20.63;;;;;;;;;;4891833;29;20444;-81
2021/12/28 14:01:30;;;;;;;32.42;20.42;;;8.50;99.90;;;;;;4888209;29;20427;-80
2021/12/28 14:04:16;;;;;;;32.75;21.05;;;;;;;;;;4882706;29;20421;-79
2021/12/28 14:06:43;;;;;;;42.40;22.58;;;;;;;;;;4892757;29;20841;-78
2021/12/28 14:09:14;;;;;;;40.08;22.13;;;;;;;;;;4898628;29;20944;-78
2021/12/28 14:11:49;;;;;;;177.40;31.80;;;;;;;;;;4892751;29;20467;-79
2021/12/28 14:14:16;;;;;;;18.42;12.45;;;;;;;;;;4875507;29;20469;-79
2021/12/28 14:16:53;;;;;;;15.93;9.98;;;;;;;;;;4882836;29;20909;-79
2021/12/28 14:19:19;;;;;;;9.25;5.10;;;;;;;;;;4917356;29;20465;-79
2021/12/28 14:21:46;;;;;;;8.97;3.87;;;;;;;;;;4897883;29;20465;-80
2021/12/28 14:24:13;;;;;;;9.43;4.40;;;;;;;;;;4896914;29;20444;-79
2021/12/28 14:26:49;;;;;;;9.68;5.00;;;;;;;;;;4882823;29;20417;-79
2021/12/28 14:29:17;;;;;;;8.02;4.20;;;;;;;;;;4910129;29;20421;-79